tititudorancea.com
Station Historical Data
Daily Summary for December 7, 2018 Units:  Metric    English   Both
« Previous Day
Next Day »
Daily Weekly Monthly Yearly Custom
  High: Low: Average:
Temperature: -17.8 °C 19.1 °C 29.3 °C
Dew Point: -17.8 °C 4.9 °C 8.6 °C
Humidity: Humidity % 14 % 29 %
Wind Speed: 0 km/h 0 km/h 18 km/h
Wind Gust: 0 km/h - -
Wind:- - WNW
Pressure: 0 hPa 1006.3 hPa -
Precipitation: 0 mm    
Historical Graphs
 
 
Ararat weather Find more about Weather in Ararat, AU


 



 


Tabular Data for December 7, 2018
Time Temperature Dew Point Pressure Wind Wind Speed Wind Gust Humidity Rainfall Rate (Hourly)
-17.8 °C -17.8 °C 0 hPa Calm     Humidity % 0 mm
00:04 21.3 °C 8.2 °C 1010 hPa Calm     43 % 0 mm
00:09 21.1 °C 8.1 °C 1010 hPa Calm     43 % 0 mm
00:14 20.9 °C 8.6 °C 1010 hPa Calm     45 % 0 mm
00:19 20.8 °C 8.7 °C 1010 hPa Calm     46 % 0 mm
00:24 20.6 °C 8.9 °C 1010 hPa Calm     47 % 0 mm
00:29 20.6 °C 8.6 °C 1010 hPa Calm     46 % 0 mm
00:34 20.7 °C 9 °C 1010 hPa North 3.7 km/h 3.7 km/h 47 % 0 mm
00:39 20.7 °C 8.7 °C 1010 hPa NNW 5.6 km/h 2.9 km/h 46 % 0 mm
00:44 20.8 °C 8.7 °C 1009.7 hPa Calm     46 % 0 mm
00:49 20.9 °C 9.2 °C 1010 hPa Calm     47 % 0 mm
00:54 20.9 °C 9.2 °C 1009.7 hPa NNW 3.7 km/h 0.5 km/h 47 % 0 mm
00:59 20.8 °C 9.4 °C 1009.7 hPa Calm     48 % 0 mm
01:04 20.5 °C 9.1 °C 1009.7 hPa NNW 1.9 km/h 2.1 km/h 48 % 0 mm
01:09 20.4 °C 9.1 °C 1009.7 hPa Calm   0.5 km/h 48 % 0 mm
01:14 20.4 °C 9.3 °C 1009.7 hPa Calm     49 % 0 mm
01:19 20.3 °C 9.2 °C 1009.7 hPa Calm     49 % 0 mm
01:24 20 °C 9.3 °C 1009.7 hPa Calm     50 % 0 mm
01:29 19.9 °C 9.2 °C 1009.7 hPa Calm     50 % 0 mm
01:34 19.7 °C 9.2 °C 1009.7 hPa Calm     51 % 0 mm
01:39 19.5 °C 9.1 °C 1009.7 hPa Calm     51 % 0 mm
01:44 19.3 °C 9.4 °C 1009.7 hPa Calm     53 % 0 mm
01:49 19.2 °C 9.1 °C 1009.7 hPa Calm     52 % 0 mm
01:54 19.1 °C 8.7 °C 1009.7 hPa Calm     51 % 0 mm
01:59 19.1 °C 8.7 °C 1009.4 hPa NNW 3.2 km/h 0.3 km/h 51 % 0 mm
02:04 19.1 °C 9 °C 1009.4 hPa North 5.6 km/h 0.5 km/h 52 % 0 mm
02:09 19.1 °C 8.7 °C 1009.4 hPa NNW 4.8 km/h 2.4 km/h 51 % 0 mm
02:14 19.2 °C 8.5 °C 1009.4 hPa NNW 3.7 km/h 1.6 km/h 50 % 0 mm
02:19 19.3 °C 8.3 °C 1009.4 hPa NNW 3.7 km/h 2.9 km/h 49 % 0 mm
02:24 19.7 °C 8.1 °C 1009.4 hPa NNW 5.6 km/h 3.1 km/h 47 % 0 mm
02:29 20.6 °C 7.6 °C 1009 hPa NNW 5.6 km/h 5.3 km/h 43 % 0 mm
02:34 21.7 °C 7.8 °C 1009 hPa NNW 5.6 km/h 3.5 km/h 41 % 0 mm
02:39 22.9 °C 7.9 °C 1009 hPa NNW 5.6 km/h 3.2 km/h 38 % 0 mm
02:44 23.8 °C 7.8 °C 1009 hPa North 5.6 km/h 2.9 km/h 36 % 0 mm
02:49 24.2 °C 7.7 °C 1009 hPa North 7.4 km/h 4 km/h 35 % 0 mm
02:54 24.4 °C 7.9 °C 1009 hPa NNW 5.6 km/h 3.7 km/h 35 % 0 mm
02:59 24.6 °C 7.7 °C 1009 hPa NNW 5.6 km/h 3.5 km/h 34 % 0 mm
03:04 24.6 °C 7.7 °C 1009 hPa North 7.4 km/h 5.1 km/h 34 % 0 mm
03:09 24.9 °C 7.9 °C 1009 hPa North 11.1 km/h 7.7 km/h 34 % 0 mm
03:14 25.2 °C 7.8 °C 1009 hPa North 9.3 km/h 5.3 km/h 33 % 0 mm
03:19 25.3 °C 7.9 °C 1009 hPa NNW 11.3 km/h 7.2 km/h 33 % 0 mm
03:24 25.4 °C 8 °C 1009 hPa NNW 9.3 km/h 5 km/h 33 % 0 mm
03:29 25.4 °C 8 °C 1009 hPa North 13 km/h 7.4 km/h 33 % 0 mm
03:33 25.6 °C 8.1 °C 1009 hPa NNW 14.8 km/h 6.8 km/h 33 % 0 mm
03:39 25.4 °C 8 °C 1009 hPa NNW 9.3 km/h 6 km/h 33 % 0 mm
03:44 25.3 °C 7.9 °C 1009 hPa NNW 9.3 km/h 6.1 km/h 33 % 0 mm
03:49 25.2 °C 8.2 °C 1009 hPa NNW 11.1 km/h 6 km/h 34 % 0 mm
03:54 25.1 °C 8.2 °C 1009 hPa NNW 7.4 km/h 4 km/h 34 % 0 mm
03:59 24.9 °C 8 °C 1009 hPa NNW 7.4 km/h 5 km/h 34 % 0 mm
04:04 24.8 °C 8.3 °C 1009 hPa NNW 11.1 km/h 6.4 km/h 35 % 0 mm
04:09 24.6 °C 8.1 °C 1009 hPa NNW 7.4 km/h 4.7 km/h 35 % 0 mm
04:14 24.4 °C 8.3 °C 1009.4 hPa North 5.6 km/h 3.9 km/h 36 % 0 mm
04:19 24.2 °C 8.2 °C 1009.4 hPa North 5.6 km/h 3.7 km/h 36 % 0 mm
04:24 24 °C 8.4 °C 1009.4 hPa North 5.6 km/h 4 km/h 37 % 0 mm
04:29 23.9 °C 8.3 °C 1009.4 hPa NNW 9.7 km/h 4 km/h 37 % 0 mm
04:34 23.8 °C 8.2 °C 1009.7 hPa North 6.4 km/h 4.2 km/h 37 % 0 mm
04:39 23.8 °C 8.2 °C 1009.7 hPa NNW 5.6 km/h 4.5 km/h 37 % 0 mm
04:44 23.8 °C 8.3 °C 1009.7 hPa NNW 8 km/h 5.1 km/h 37 % 0 mm
04:49 23.8 °C 8.7 °C 1009.7 hPa NNW 5.6 km/h 4.5 km/h 38 % 0 mm
04:54 23.8 °C 8.7 °C 1010 hPa NNW 5.6 km/h 3.1 km/h 38 % 0 mm
04:59 23.9 °C 8.7 °C 1010 hPa NNW 5.6 km/h 2.6 km/h 38 % 0 mm
05:04 23.8 °C 8.7 °C 1010 hPa NNW 3.7 km/h 1.9 km/h 38 % 0 mm
05:09 23.7 °C 8.9 °C 1010 hPa NNW 3.7 km/h 2.6 km/h 39 % 0 mm
05:14 23.7 °C 8.9 °C 1010 hPa NNW 5.6 km/h 4.5 km/h 39 % 0 mm
05:19 23.7 °C 8.9 °C 1010 hPa NNW 5.6 km/h 5.3 km/h 39 % 0 mm
05:24 23.9 °C 9.1 °C 1010 hPa North 8 km/h 4.8 km/h 39 % 0 mm
05:29 24 °C 9.2 °C 1010 hPa NNW 9.3 km/h 9.7 km/h 39 % 0 mm
05:34 24.2 °C 9.4 °C 1010 hPa NNW 14.8 km/h 9.8 km/h 39 % 0 mm
05:39 24.6 °C 9.3 °C 1010.4 hPa NNW 13 km/h 5.5 km/h 38 % 0 mm
05:44 24.8 °C 9.2 °C 1010.4 hPa North 12.9 km/h 8.9 km/h 37 % 0 mm
05:49 25 °C 9.3 °C 1010.4 hPa North 18.5 km/h 9.3 km/h 37 % 0 mm
05:54 25.3 °C 9.1 °C 1010 hPa North 14.8 km/h 10 km/h 36 % 0 mm
05:59 25.4 °C 9.3 °C 1010.4 hPa North 14.8 km/h 7.7 km/h 36 % 0 mm
06:04 25.6 °C 9.4 °C 1010 hPa North 16.7 km/h 7.9 km/h 36 % 0 mm
06:09 25.6 °C 9.4 °C 1010 hPa North 18.5 km/h 9.2 km/h 36 % 0 mm
06:14 25.6 °C 9.4 °C 1010.4 hPa North 18.5 km/h 10.5 km/h 36 % 0 mm
06:19 25.6 °C 9.4 °C 1010.4 hPa North 16.1 km/h 10.6 km/h 36 % 0 mm
06:24 25.6 °C 9.4 °C 1010.4 hPa North 18.5 km/h 9.3 km/h 36 % 0 mm
06:29 25.6 °C 9.4 °C 1010.4 hPa North 11.3 km/h 10.1 km/h 36 % 0 mm
06:34 25.6 °C 9.4 °C 1010.4 hPa NNE 11.1 km/h 7.9 km/h 36 % 0 mm
06:39 25.5 °C 9.3 °C 1010.4 hPa NNE 11.3 km/h 9.7 km/h 36 % 0 mm
06:44 25.6 °C 9.4 °C 1010.4 hPa North 18.5 km/h 9.8 km/h 36 % 0 mm
06:49 25.7 °C 9.5 °C 1010.4 hPa North 18.5 km/h 10.3 km/h 36 % 0 mm
06:54 25.8 °C 9.6 °C 1010.4 hPa North 16.7 km/h 9.7 km/h 36 % 0 mm
06:59 26 °C 9.3 °C 1010.4 hPa North 11.3 km/h 12.1 km/h 35 % 0 mm
07:04 26.2 °C 9.5 °C 1010.4 hPa North 16.7 km/h 11.1 km/h 35 % 0 mm
07:09 26.3 °C 9.6 °C 1010.4 hPa NNE 18.5 km/h 16.3 km/h 35 % 0 mm
07:14 26.5 °C 9.8 °C 1010.4 hPa North 18.5 km/h 11.7 km/h 35 % 0 mm
07:19 26.7 °C 9.5 °C 1010.4 hPa NNE 22.2 km/h 11.7 km/h 34 % 0 mm
07:24 26.9 °C 9.7 °C 1010.4 hPa North 27.8 km/h 20.8 km/h 34 % 0 mm
07:29 27.1 °C 9.8 °C 1010.7 hPa North 20.4 km/h 12.4 km/h 34 % 0 mm
07:34 27.3 °C 9.6 °C 1010.7 hPa North 17.7 km/h 18 km/h 33 % 0 mm
07:39 27.5 °C 9.8 °C 1010.7 hPa North 17.7 km/h 14.5 km/h 33 % 0 mm
07:44 27.6 °C 9.9 °C 1010.7 hPa North 24.1 km/h 16.4 km/h 33 % 0 mm
07:49 27.7 °C 9.5 °C 1010.7 hPa NNE 18.5 km/h 17.1 km/h 32 % 0 mm
07:54 28 °C 9.8 °C 1010.7 hPa North 20.4 km/h 13 km/h 32 % 0 mm
07:59 28.4 °C 10.1 °C 1010.7 hPa NNW 27.8 km/h 10.5 km/h 32 % 0 mm
08:02 28.6 °C 9.8 °C 1010.7 hPa NNE 20.4 km/h 11.1 km/h 31 % 0 mm
08:10 28.6 °C 9.8 °C 1010.7 hPa NNE 20.4 km/h 10.6 km/h 31 % 0 mm
08:19 28.8 °C 9.5 °C 1011.1 hPa NNW 19.3 km/h 10.9 km/h 30 % 0 mm
08:24 28.7 °C 9.4 °C 1011.1 hPa NNW 31.5 km/h 17.5 km/h 30 % 0 mm
08:29 28.8 °C 10 °C 1011.1 hPa North 24.1 km/h 9.8 km/h 31 % 0 mm
08:34 29 °C 9.7 °C 1011.1 hPa NNW 24.1 km/h 12.4 km/h 30 % 0 mm
08:39 29.3 °C 9.9 °C 1011.1 hPa North 27.8 km/h 15.8 km/h 30 % 0 mm
08:44 29.4 °C 10.1 °C 1011.1 hPa North 18.5 km/h 18.5 km/h 30 % 0 mm
08:49 29.7 °C 9.8 °C 1011.1 hPa North 29.6 km/h 19.8 km/h 29 % 0 mm
08:54 29.8 °C 9.8 °C 1011.1 hPa NNW 16.7 km/h 9.7 km/h 29 % 0 mm
08:59 29.6 °C 9.7 °C 1011.1 hPa North 17.7 km/h 11.9 km/h 29 % 0 mm
09:04 29.9 °C 9.9 °C 1011.1 hPa NNW 18.5 km/h 10.6 km/h 29 % 0 mm
09:09 30.4 °C 10.4 °C 1011.1 hPa NNW 14.8 km/h 14.5 km/h 29 % 0 mm
09:14 30.2 °C 9.7 °C 1011.1 hPa NNW 37 km/h 18.5 km/h 28 % 0 mm
09:19 30.2 °C 10.2 °C 1010.7 hPa North 18.5 km/h 10.6 km/h 29 % 0 mm
09:24 30.6 °C 10 °C 1010.7 hPa North 27.8 km/h 18.3 km/h 28 % 0 mm
09:29 30.7 °C 10.1 °C 1010.7 hPa NNE 29.6 km/h 22.4 km/h 28 % 0 mm
09:34 31 °C 10.3 °C 1010.7 hPa North 35.2 km/h 21.4 km/h 28 % 0 mm
09:39 31.6 °C 10.3 °C 1010.4 hPa NNW 46.3 km/h 19.5 km/h 27 % 0 mm
09:44 32.1 °C 10.2 °C 1010.7 hPa NNW 42.6 km/h 20.3 km/h 26 % 0 mm
09:49 32.1 °C 10.2 °C 1010.7 hPa NNW 33.3 km/h 18.5 km/h 26 % 0 mm
09:54 31.8 °C 9.9 °C 1010.7 hPa North 43.5 km/h 21.7 km/h 26 % 0 mm
09:59 31.4 °C 9.6 °C 1010.7 hPa North 35.2 km/h 26.9 km/h 26 % 0 mm
10:04 31.4 °C 10.2 °C 1010.7 hPa NNW 31.5 km/h 19.8 km/h 27 % 0 mm
10:09 31.9 °C 10.6 °C 1010.4 hPa NW 27.8 km/h 23.2 km/h 27 % 0 mm
10:14 32.2 °C 10.3 °C 1010.4 hPa NW 22.2 km/h 15.8 km/h 26 % 0 mm
10:19 32.6 °C 10.6 °C 1010.4 hPa North 38.9 km/h 23.3 km/h 26 % 0 mm
10:24 32.8 °C 10.2 °C 1010 hPa NNW 29.6 km/h 20.4 km/h 25 % 0 mm
10:29 33.3 °C 10.6 °C 1010 hPa North 35.4 km/h 28.5 km/h 25 % 0 mm
10:34 33.1 °C 9.8 °C 1010.4 hPa NW 31.5 km/h 22.7 km/h 24 % 0 mm
10:39 32.8 °C 10.2 °C 1010.4 hPa NNW 27.4 km/h 20.8 km/h 25 % 0 mm
10:44 33 °C 10.3 °C 1010.4 hPa North 30.6 km/h 18 km/h 25 % 0 mm
10:49 33.1 °C 9.8 °C 1010 hPa NNW 31.5 km/h 19.3 km/h 24 % 0 mm
10:54 33.7 °C 9.7 °C 1010 hPa NNW 38.9 km/h 28.8 km/h 23 % 0 mm
10:59 33.6 °C 10.3 °C 1010 hPa NW 38.6 km/h 20.6 km/h 24 % 0 mm
11:04 33.7 °C 9.7 °C 1010 hPa NNW 29.6 km/h 22 km/h 23 % 0 mm
11:09 33.9 °C 9.8 °C 1010 hPa NW 24.1 km/h 16.7 km/h 23 % 0 mm
11:14 33.9 °C 9.2 °C 1010 hPa NNW 35.2 km/h 22.4 km/h 22 % 0 mm
11:19 33.7 °C 9.1 °C 1009.7 hPa NNW 29.6 km/h 13.7 km/h 22 % 0 mm
11:24 34.1 °C 9.4 °C 1009.7 hPa NNW 31.5 km/h 24.5 km/h 22 % 0 mm
11:29 34.1 °C 9.3 °C 1009.7 hPa NNW 35.2 km/h 19.3 km/h 22 % 0 mm
11:34 34.5 °C 9.7 °C 1009.7 hPa North 33.3 km/h 16.6 km/h 22 % 0 mm
11:39 35 °C 10.1 °C 1009.7 hPa NW 18.5 km/h 11.7 km/h 22 % 0 mm
11:44 35.2 °C 8.8 °C 1009.7 hPa NW 30.6 km/h 18.7 km/h 20 % 0 mm
11:49 35.2 °C 8.8 °C 1009.4 hPa NNW 31.5 km/h 24.3 km/h 20 % 0 mm
11:54 35.3 °C 8.9 °C 1009.4 hPa NNW 33.3 km/h 17.2 km/h 20 % 0 mm
11:59 35.4 °C 9.1 °C 1009.4 hPa North 29.6 km/h 18.8 km/h 20 % 0 mm
12:04 35.4 °C 8.2 °C 1009 hPa WNW 40.7 km/h 30.7 km/h 19 % 0 mm
12:09 35.6 °C 9.2 °C 1009 hPa North 27.8 km/h 15.9 km/h 20 % 0 mm
12:14 35.3 °C 8.9 °C 1009 hPa North 33.3 km/h 20.3 km/h 20 % 0 mm
12:19 35.3 °C 8.9 °C 1009 hPa NW 29.6 km/h 18.2 km/h 20 % 0 mm
12:24 35.7 °C 8.5 °C 1009 hPa North 31.5 km/h 21.4 km/h 19 % 0 mm
12:29 36.5 °C 8.3 °C 1008.7 hPa NW 33.8 km/h 24.5 km/h 18 % 0 mm
12:34 36.7 °C 8.5 °C 1008.7 hPa North 29.6 km/h 19.3 km/h 18 % 0 mm
12:39 36.5 °C 8.3 °C 1008.7 hPa WNW 27.8 km/h 21.2 km/h 18 % 0 mm
12:44 36.4 °C 8.3 °C 1008.7 hPa NW 48.1 km/h 31.2 km/h 18 % 0 mm
12:49 36.8 °C 8.6 °C 1008.7 hPa NW 31.5 km/h 19.5 km/h 18 % 0 mm
12:54 36.6 °C 7.6 °C 1008.7 hPa NW 32.2 km/h 22.4 km/h 17 % 0 mm
12:59 36 °C 7.9 °C 1008.7 hPa North 37 km/h 15.9 km/h 18 % 0 mm
13:04 36.1 °C 8 °C 1008.4 hPa WNW 24.1 km/h 14 km/h 18 % 0 mm
13:09 36.4 °C 8.3 °C 1008.4 hPa NNW 31.5 km/h 11.9 km/h 18 % 0 mm
13:14 36.6 °C 7.6 °C 1008.4 hPa North 31.5 km/h 22 km/h 17 % 0 mm
13:19 36.4 °C 7.4 °C 1008.4 hPa North 24.1 km/h 16.9 km/h 17 % 0 mm
13:24 36.4 °C 6.6 °C 1008.4 hPa WNW 35.4 km/h 25.3 km/h 16 % 0 mm
13:29 36.3 °C 7.3 °C 1008 hPa North 32.2 km/h 22.9 km/h 17 % 0 mm
13:34 36.2 °C 5.4 °C 1008 hPa North 37 km/h 22.4 km/h 15 % 0 mm
13:39 36.1 °C 6.3 °C 1008 hPa NNW 37 km/h 22.7 km/h 16 % 0 mm
13:44 36.2 °C 6.3 °C 1008 hPa North 35.2 km/h 25.1 km/h 16 % 0 mm
13:49 36.3 °C 6.4 °C 1008 hPa North 18.5 km/h 12.1 km/h 16 % 0 mm
13:54 36.7 °C 6.8 °C 1008 hPa NW 27.8 km/h 23.5 km/h 16 % 0 mm
13:59 36.7 °C 6.8 °C 1008 hPa NNW 29.6 km/h 17.7 km/h 16 % 0 mm
14:04 36.7 °C 6.8 °C 1007.7 hPa NW 30.6 km/h 17.2 km/h 16 % 0 mm
14:09 36.5 °C 6.6 °C 1007.7 hPa NNW 38.9 km/h 21.1 km/h 16 % 0 mm
14:14 36.4 °C 6.6 °C 1007.7 hPa NW 20.4 km/h 16.7 km/h 16 % 0 mm
14:19 36.3 °C 5.6 °C 1007.7 hPa NW 33.8 km/h 24.6 km/h 15 % 0 mm
14:24 36.2 °C 5.4 °C 1007.7 hPa NW 40.7 km/h 18 km/h 15 % 0 mm
14:29 36.2 °C 5.4 °C 1007.7 hPa WNW 20.9 km/h 17.2 km/h 15 % 0 mm
14:34 36.1 °C 5.3 °C 1007.7 hPa NNW 33.3 km/h 16.3 km/h 15 % 0 mm
14:39 36 °C 6.2 °C 1007.7 hPa NW 27.8 km/h 12.6 km/h 16 % 0 mm
14:44 35.8 °C 6.1 °C 1007.7 hPa NNW 24.1 km/h 16.1 km/h 16 % 0 mm
14:49 36.2 °C 6.4 °C 1007.7 hPa NW 24.1 km/h 20.8 km/h 16 % 0 mm
14:54 36.3 °C 6.5 °C 1007.7 hPa North 40.7 km/h 21.7 km/h 16 % 0 mm
14:59 36.1 °C 6.3 °C 1007.7 hPa NW 31.5 km/h 25.9 km/h 16 % 0 mm
15:04 35.8 °C 6.1 °C 1007.7 hPa North 25.9 km/h 18 km/h 16 % 0 mm
15:09 35.8 °C 6.1 °C 1007.7 hPa North 24.1 km/h 13.7 km/h 16 % 0 mm
15:14 35.8 °C 6.1 °C 1007.7 hPa North 29.6 km/h 24.9 km/h 16 % 0 mm
15:19 35.9 °C 6.2 °C 1007.7 hPa NW 33.3 km/h 19.6 km/h 16 % 0 mm
15:24 36.5 °C 6.6 °C 1007.3 hPa NW 31.5 km/h 20.4 km/h 16 % 0 mm
15:29 36.9 °C 6 °C 1007.3 hPa North 31.5 km/h 18.8 km/h 15 % 0 mm
15:34 36.7 °C 5.8 °C 1007.3 hPa North 33.3 km/h 24.5 km/h 15 % 0 mm
15:39 37.2 °C 5.3 °C 1007.3 hPa NW 33.3 km/h 19.8 km/h 14 % 0 mm
15:44 37.4 °C 5.4 °C 1007.3 hPa North 29.6 km/h 18.2 km/h 14 % 0 mm
15:49 37.1 °C 6.1 °C 1007 hPa NNW 35.2 km/h 22 km/h 15 % 0 mm
15:54 37 °C 6.1 °C 1007 hPa NW 18.5 km/h 10.5 km/h 15 % 0 mm
15:59 36.8 °C 4.9 °C 1007 hPa NNW 29.6 km/h 20.3 km/h 14 % 0 mm
16:04 36.7 °C 4.9 °C 1007 hPa WNW 29.6 km/h 20.3 km/h 14 % 0 mm
16:09 36.9 °C 5 °C 1007 hPa NNW 33.3 km/h 24.5 km/h 14 % 0 mm
16:14 36.6 °C 5.8 °C 1007 hPa North 27.8 km/h 15.6 km/h 15 % 0 mm
16:19 37 °C 6.1 °C 1007 hPa NW 29.6 km/h 22.4 km/h 15 % 0 mm
16:24 37.3 °C 6.3 °C 1006.7 hPa North 25.9 km/h 14.2 km/h 15 % 0 mm
16:29 37.6 °C 5.6 °C 1006.7 hPa NNW 25.9 km/h 17.2 km/h 14 % 0 mm
16:34 37.4 °C 6.4 °C 1006.7 hPa North 33.3 km/h 24 km/h 15 % 0 mm
16:39 36.8 °C 5.9 °C 1006.7 hPa NNW 31.5 km/h 15.3 km/h 15 % 0 mm
16:44 36.7 °C 6.8 °C 1006.7 hPa NW 31.5 km/h 19.2 km/h 16 % 0 mm
16:49 36.4 °C 6.6 °C 1006.7 hPa NW 31.5 km/h 22.2 km/h 16 % 0 mm
16:54 36.4 °C 6.6 °C 1006.7 hPa NW 20.4 km/h 11.1 km/h 16 % 0 mm
16:59 36.4 °C 6.6 °C 1006.3 hPa NNW 18.5 km/h 15 km/h 16 % 0 mm
17:04 36.4 °C 6.6 °C 1006.3 hPa NW 22.2 km/h 13.8 km/h 16 % 0 mm
17:09 36.3 °C 6.4 °C 1006.3 hPa WNW 18.5 km/h 12.7 km/h 16 % 0 mm
17:14 36.1 °C 6.3 °C 1006.3 hPa NW 18.5 km/h 11.4 km/h 16 % 0 mm
17:19 36 °C 7.1 °C 1006.3 hPa NW 18.5 km/h 12.1 km/h 17 % 0 mm
17:24 35.8 °C 7 °C 1006.3 hPa NNW 18.5 km/h 11.7 km/h 17 % 0 mm
17:29 35.6 °C 6.8 °C 1006.7 hPa West 35.2 km/h 28.5 km/h 17 % 0 mm
17:34 35.5 °C 6.7 °C 1006.3 hPa North 24.1 km/h 19.5 km/h 17 % 0 mm
17:39 35.6 °C 6.8 °C 1006.3 hPa NW 24.1 km/h 14.5 km/h 17 % 0 mm
17:44 35.7 °C 6.8 °C 1006.3 hPa North 22.2 km/h 10.6 km/h 17 % 0 mm
17:49 35.4 °C 7.4 °C 1006.7 hPa North 42.6 km/h 24.8 km/h 18 % 0 mm
17:54 35.1 °C 6.4 °C 1006.3 hPa North 27.8 km/h 22.4 km/h 17 % 0 mm
17:59 34.9 °C 6.3 °C 1006.3 hPa NNE 29.6 km/h 15.8 km/h 17 % 0 mm
18:04 35.1 °C 5.5 °C 1006.3 hPa NW 29.6 km/h 16.1 km/h 16 % 0 mm
18:09 34.9 °C 6.3 °C 1006.3 hPa NNW 14.8 km/h 14 km/h 17 % 0 mm
18:14 34.9 °C 6.3 °C 1006.3 hPa NNW 18.5 km/h 12.6 km/h 17 % 0 mm
18:19 34.9 °C 6.2 °C 1006.3 hPa North 20.4 km/h 11.9 km/h 17 % 0 mm
18:24 34.9 °C 6.2 °C 1006.3 hPa North 14.8 km/h 7.9 km/h 17 % 0 mm
18:29 34.8 °C 6.2 °C 1006.3 hPa NNW 18.5 km/h 12.4 km/h 17 % 0 mm
18:34 34.8 °C 6.9 °C 1006.7 hPa NNW 13 km/h 9.8 km/h 18 % 0 mm
18:39 34.4 °C 7.5 °C 1006.7 hPa NNW 24.1 km/h 13.5 km/h 19 % 0 mm
18:44 34.4 °C 7.4 °C 1007 hPa North 25.9 km/h 12.4 km/h 19 % 0 mm
18:49 34.2 °C 7.3 °C 1007 hPa NNW 27.8 km/h 13.7 km/h 19 % 0 mm
18:54 33.7 °C 10.3 °C 1007.3 hPa North 20.4 km/h 11.7 km/h 24 % 0 mm
18:59 32.7 °C 10.1 °C 1007.7 hPa WNW 35.4 km/h 22.7 km/h 25 % 0 mm
19:04 31.4 °C 10.7 °C 1008.4 hPa NW 48.1 km/h 28.6 km/h 28 % 0 mm
19:09 31.2 °C 9.4 °C 1008 hPa WNW 35.2 km/h 19.6 km/h 26 % 0 mm
19:14 31.4 °C 9.6 °C 1008 hPa NNW 18.5 km/h 12.1 km/h 26 % 0 mm
19:19 32 °C 8.3 °C 1008 hPa NNW 18.5 km/h 14.3 km/h 23 % 0 mm
19:24 32.3 °C 8.6 °C 1008 hPa NNW 24.1 km/h 12.9 km/h 23 % 0 mm
19:29 32.4 °C 8.6 °C 1008 hPa NNW 13 km/h 7.1 km/h 23 % 0 mm
19:34 32.4 °C 7.9 °C 1008 hPa North 7.4 km/h 3.9 km/h 22 % 0 mm
19:39 32.3 °C 8.5 °C 1008 hPa North 18.5 km/h 11.3 km/h 23 % 0 mm
19:44 32.2 °C 8.4 °C 1008.4 hPa North 9.3 km/h 4.7 km/h 23 % 0 mm
19:49 32 °C 8.9 °C 1008 hPa North 9.3 km/h 4 km/h 24 % 0 mm
19:54 31.8 °C 8.8 °C 1008 hPa North 7.4 km/h 2.9 km/h 24 % 0 mm
19:59 31.7 °C 8.6 °C 1008 hPa North 3.7 km/h 3.1 km/h 24 % 0 mm
20:04 31.4 °C 9.1 °C 1008 hPa North 5.6 km/h 3.9 km/h 25 % 0 mm
20:09 31.2 °C 8.8 °C 1008 hPa North 7.4 km/h 5.5 km/h 25 % 0 mm
20:14 31.2 °C 8.8 °C 1008 hPa North 5.6 km/h 1.4 km/h 25 % 0 mm
20:19 31.1 °C 8.8 °C 1008 hPa North 5.6 km/h 3.5 km/h 25 % 0 mm
20:24 30.9 °C 9.2 °C 1008.4 hPa North 6.4 km/h 5.1 km/h 26 % 0 mm
20:29 30.7 °C 9.6 °C 1008.4 hPa North 5.6 km/h 4.5 km/h 27 % 0 mm
20:34 30.5 °C 9.4 °C 1008.4 hPa North 5.6 km/h 2.9 km/h 27 % 0 mm
20:39 30.2 °C 9.7 °C 1008.7 hPa North 5.6 km/h 3.5 km/h 28 % 0 mm
20:44 29.9 °C 9.4 °C 1008.7 hPa North 5.6 km/h 5.3 km/h 28 % 0 mm
20:49 29.9 °C 9.4 °C 1008.7 hPa North 5.6 km/h 3.5 km/h 28 % 0 mm
20:54 29.8 °C 9.3 °C 1008.7 hPa North 3.7 km/h 3.4 km/h 28 % 0 mm
20:59 29.8 °C 9.3 °C 1008.7 hPa North 7.4 km/h 3.1 km/h 28 % 0 mm
21:04 29.7 °C 9.7 °C 1008.7 hPa North 1.9 km/h 1.1 km/h 29 % 0 mm
21:09 29.3 °C 9.4 °C 1009 hPa NNW 11.1 km/h 6.4 km/h 29 % 0 mm
21:14 29.1 °C 9.3 °C 1009 hPa NNW 3.7 km/h 3.1 km/h 29 % 0 mm
21:19 29 °C 9.7 °C 1009 hPa NNW 5.6 km/h 2.1 km/h 30 % 0 mm
21:24 28.7 °C 9.9 °C 1009 hPa West 14.8 km/h 6.9 km/h 31 % 0 mm
21:29 28.6 °C 9.8 °C 1009.4 hPa North 8 km/h 6 km/h 31 % 0 mm
21:34 28.3 °C 10.1 °C 1009.4 hPa WSW 13 km/h 10 km/h 32 % 0 mm
21:39 28.1 °C 10.3 °C 1009.7 hPa SW 9.3 km/h 6.8 km/h 33 % 0 mm
21:44 27.8 °C 10.5 °C 1009.7 hPa SW 9.7 km/h 5.8 km/h 34 % 0 mm
21:49 27.7 °C 10.8 °C 1009.7 hPa SW 7.4 km/h 5.8 km/h 35 % 0 mm
21:54 27.4 °C 10.6 °C 1010.4 hPa South 13 km/h 13.7 km/h 35 % 0 mm
21:59 27.1 °C 11.1 °C 1010 hPa South 9.7 km/h 8.7 km/h 37 % 0 mm
22:04 26.6 °C 11.1 °C 1010.4 hPa SSW 13 km/h 11.9 km/h 38 % 0 mm
22:09 26.2 °C 11.1 °C 1010 hPa SSW 14.8 km/h 7.2 km/h 39 % 0 mm
22:14 25.8 °C 10.8 °C 1010.4 hPa SSW 13 km/h 10.6 km/h 39 % 0 mm
22:19 25.5 °C 10.9 °C 1010.4 hPa SSW 16.7 km/h 5.3 km/h 40 % 0 mm
22:24 25.2 °C 11.1 °C 1011.1 hPa SSW 16.1 km/h 12.2 km/h 41 % 0 mm
22:29 25 °C 10.8 °C 1011.1 hPa SSW 13 km/h 4.7 km/h 41 % 0 mm
22:34 24.8 °C 11.1 °C 1011.1 hPa SSW 19.3 km/h 7.9 km/h 42 % 0 mm
22:39 24.7 °C 10.9 °C 1011.1 hPa SSW 14.8 km/h 10.8 km/h 42 % 0 mm
22:44 24.7 °C 10.9 °C 1010.7 hPa SSW 5.6 km/h 4.2 km/h 42 % 0 mm
22:49 24.7 °C 10.9 °C 1010.7 hPa SSW 7.4 km/h 3.7 km/h 42 % 0 mm
22:54 24.5 °C 11.1 °C 1010.7 hPa SSW 7.4 km/h 5.8 km/h 43 % 0 mm
22:59 24.4 °C 11.3 °C 1011.1 hPa SSW 5.6 km/h 3.4 km/h 44 % 0 mm
23:04 24.2 °C 11.2 °C 1011.1 hPa SSW 5.6 km/h 2.4 km/h 44 % 0 mm
23:09 24 °C 11 °C 1011.1 hPa SSW 5.6 km/h 3.9 km/h 44 % 0 mm
23:14 23.8 °C 11.1 °C 1010.7 hPa SSW 5.6 km/h 5.6 km/h 45 % 0 mm
23:19 23.7 °C 11.1 °C 1011.1 hPa SSW 5.6 km/h 0.8 km/h 45 % 0 mm
23:24 23.6 °C 11.3 °C 1010.7 hPa SSW 3.7 km/h 2.6 km/h 46 % 0 mm
23:29 23.4 °C 11.5 °C 1010.7 hPa SSW 1.9 km/h   47 % 0 mm
23:34 23.3 °C 11.3 °C 1010.7 hPa SSW 3.7 km/h 0.5 km/h 47 % 0 mm
23:39 23.2 °C 11.6 °C 1010.4 hPa Calm     48 % 0 mm
23:44 23 °C 11.7 °C 1010.7 hPa Calm     49 % 0 mm
23:49 22.8 °C 11.5 °C 1010.7 hPa SSW 5.6 km/h 4.8 km/h 49 % 0 mm
23:54 22.8 °C 11.5 °C 1010.7 hPa SSW 6.4 km/h 5.8 km/h 49 % 0 mm
23:59 22.8 °C 11.9 °C 1010.7 hPa SSW 3.7 km/h 3.1 km/h 50 % 0 mm
Ararat Weather
Compliments of Weather Underground - 2.25 mb
Click here to send mail.


ABOUT

Live weather data from Ararat, Victoria, Australia, 3377
Data uploaded from Cumulus every 5 minutes to Weather Underground.
This site then downloads the raw data for formatting and display.
Metric and imperial data can be displayed. Graphs and historical data available.
Includes Sun and Moon times and rain image live from BOM.

Check out Ararat Weather on Facebook, Twitter and Google +

Help support ongoing costs by checking out the ads





Follow @AraratWeather